Time;durP1;ratioP1;P1;durP2;ratioP2;P2;SDS_P1;SDS_P2;PMS_P1;PMS_P2;Temp;Humidity;BMP_temperature;BMP_pressure;BME280_temperature;BME280_humidity;BME280_pressure;Samples;Min_cycle;Max_cycle;Signal;HPM_P1;HPM_P2
2022/05/09 00:00:22;;;;;;;6.22;4.25;;;;;;;17.68;56.82;100478.56;4320929;32;32287;-84
2022/05/09 00:02:52;;;;;;;5.57;4.05;;;;;;;17.56;57.13;100482.00;4347149;32;33862;-85
2022/05/09 00:05:22;;;;;;;5.40;4.70;;;;;;;17.60;56.80;100476.38;4324931;32;32966;-85
2022/05/09 00:07:50;;;;;;;5.57;3.80;;;;;;;17.51;57.08;100471.59;4335625;32;34240;-85
2022/05/09 00:10:20;;;;;;;5.25;3.97;;;;;;;17.43;57.37;100473.91;4335016;32;34220;-86
2022/05/09 00:12:48;;;;;;;4.82;4.03;;;;;;;17.38;57.63;100478.66;4334835;32;33138;-85
2022/05/09 00:15:18;;;;;;;5.55;3.75;;;;;;;17.26;57.82;100482.06;4348106;32;33028;-86
2022/05/09 00:17:46;;;;;;;5.43;3.72;;;;;;;17.32;57.55;100479.00;4346602;32;33017;-86
2022/05/09 00:20:16;;;;;;;5.65;4.45;;;;;;;17.31;57.50;100469.28;4336253;32;33834;-85
2022/05/09 00:22:52;;;;;;;6.45;4.30;;;;;;;17.31;57.60;100475.50;4345801;32;34283;-86
2022/05/09 00:25:25;;;;;;;5.60;4.03;;;;;;;17.31;57.86;100474.63;4331981;32;32377;-84
2022/05/09 00:27:54;;;;;;;6.25;4.15;;;;;;;17.39;57.61;100477.72;4336648;32;32219;-84
2022/05/09 00:30:22;;;;;;;4.55;3.78;;;;;;;17.32;57.69;100476.34;4348047;32;33746;-86
2022/05/09 00:32:50;;;;;;;4.78;4.12;;;;;;;17.01;58.36;100478.22;4336471;32;32401;-84
2022/05/09 00:35:18;;;;;;;5.32;4.30;;;;;;;17.06;58.14;100485.94;4335671;32;33494;-84
2022/05/09 00:37:46;;;;;;;6.12;3.92;;;;;;;17.15;57.79;100472.91;4346813;32;34320;-84
2022/05/09 00:40:16;;;;;;;4.12;3.72;;;;;;;17.21;57.67;100484.16;4345290;32;33471;-84
2022/05/09 00:42:50;;;;;;;5.00;4.50;;;;;;;17.08;58.08;100479.53;4336003;32;33724;-84
2022/05/09 00:45:21;;;;;;;5.93;4.90;;;;;;;17.02;58.26;100485.25;4332775;33;33707;-84
2022/05/09 00:47:50;;;;;;;5.57;4.30;;;;;;;16.92;58.50;100486.75;4334168;32;33647;-86
2022/05/09 00:50:28;;;;;;;6.37;3.92;;;;;;;16.56;59.68;100485.22;4333712;32;33920;-86
2022/05/09 00:53:02;;;;;;;5.85;4.62;;;;;;;16.72;59.43;100484.41;4334797;32;33648;-87
2022/05/09 00:55:41;;;;;;;7.00;5.07;;;;;;;16.69;59.55;100481.88;4332771;33;32917;-87
2022/05/09 00:58:12;;;;;;;7.60;5.15;;;;;;;16.81;59.46;100486.53;4347506;32;33845;-87
2022/05/09 01:00:44;;;;;;;7.62;5.05;;;;;;;16.77;59.58;100485.00;4321294;32;33425;-87
2022/05/09 01:03:36;;;;;;;8.10;4.97;;;;;;;16.71;60.05;100493.28;4345577;32;34246;-87
2022/05/09 01:06:04;;;;;;;6.00;5.32;;;;;;;16.82;59.94;100482.91;4346755;32;34628;-86
2022/05/09 01:08:33;;;;;;;7.18;5.32;;;;;;;16.71;60.18;100490.63;4323416;32;33223;-86
2022/05/09 01:11:03;;;;;;;7.25;5.10;;;;;;;16.67;60.46;100495.31;4346011;32;33990;-87
2022/05/09 01:13:34;;;;;;;8.23;5.57;;;;;;;16.82;59.91;100493.59;4352910;32;33852;-86
2022/05/09 01:16:04;;;;;;;8.35;5.68;;;;;;;16.77;60.17;100490.31;4334367;32;33402;-86
2022/05/09 01:18:32;;;;;;;6.20;5.35;;;;;;;16.67;60.51;100494.44;4347311;32;33521;-86
2022/05/09 01:20:59;;;;;;;8.57;5.75;;;;;;;16.79;60.05;100494.59;4347844;32;33588;-86
2022/05/09 01:23:33;;;;;;;6.07;5.10;;;;;;;16.37;61.68;100495.22;4343809;33;33764;-85
2022/05/09 01:26:02;;;;;;;7.95;5.30;;;;;;;16.64;60.70;100500.81;4323598;32;33133;-85
2022/05/09 01:28:31;;;;;;;5.55;4.90;;;;;;;16.65;60.79;100499.84;4346716;32;33061;-85
2022/05/09 01:31:02;;;;;;;7.32;5.40;;;;;;;16.54;61.28;100499.62;4346748;32;34007;-85
2022/05/09 01:33:37;;;;;;;6.00;5.25;;;;;;;16.61;60.95;100501.81;4351687;32;33988;-85
2022/05/09 01:36:09;;;;;;;5.87;5.28;;;;;;;16.60;61.03;100494.78;4346476;32;32914;-85
2022/05/09 01:39:03;;;;;;;5.78;4.37;;;;;;;16.44;61.59;100504.63;4336375;32;33677;-85
2022/05/09 01:41:37;;;;;;;7.05;5.40;;;;;;;16.37;61.81;100500.56;4344672;32;33983;-85
2022/05/09 01:44:07;;;;;;;8.35;4.68;;;;;;;16.56;61.23;100503.91;4339689;32;267154;-86
2022/05/09 01:49:29;;;;;;;7.47;5.45;;;;;;;16.37;61.88;100503.22;4324421;32;33418;-86
2022/05/09 01:49:31;;;;;;;8.73;4.95;;;;;;;16.48;61.66;100500.84;4347098;32;34338;-86
2022/05/09 01:52:00;;;;;;;5.82;4.93;;;;;;;16.44;61.61;100507.28;4348729;32;33319;-86
2022/05/09 01:54:29;;;;;;;7.32;4.60;;;;;;;16.56;61.20;100503.91;4347514;32;34526;-86
2022/05/09 01:56:57;;;;;;;7.80;5.43;;;;;;;16.56;61.39;100509.22;4333935;32;32021;-86
2022/05/09 01:59:25;;;;;;;5.47;4.95;;;;;;;16.61;61.15;100501.81;4347103;32;33282;-86
2022/05/09 02:02:00;;;;;;;6.50;5.82;;;;;;;16.56;61.16;100503.91;4359359;32;34096;-86
2022/05/09 02:04:30;;;;;;;6.35;4.80;;;;;;;16.47;61.36;100493.75;4331955;33;32716;-85
2022/05/09 02:06:58;;;;;;;6.05;5.03;;;;;;;16.46;61.44;100497.38;4331863;32;33317;-85
2022/05/09 02:09:27;;;;;;;6.60;4.90;;;;;;;16.32;61.78;100494.63;4344352;32;33839;-85
2022/05/09 02:11:55;;;;;;;6.05;5.18;;;;;;;16.38;61.73;100504.97;4320608;32;34654;-85
2022/05/09 02:14:23;;;;;;;6.50;5.12;;;;;;;16.52;61.29;100501.50;4336188;32;34748;-85
2022/05/09 02:16:51;;;;;;;6.43;4.95;;;;;;;16.55;61.20;100493.34;4347340;32;31808;-85
2022/05/09 02:19:19;;;;;;;7.18;5.62;;;;;;;16.45;61.56;100503.66;4347831;32;33928;-87
2022/05/09 02:21:47;;;;;;;6.28;5.00;;;;;;;16.43;61.38;100502.03;4348567;32;34139;-87
2022/05/09 02:24:15;;;;;;;6.78;5.45;;;;;;;16.29;61.58;100505.50;4345831;32;33140;-87
2022/05/09 02:26:43;;;;;;;5.20;4.70;;;;;;;16.45;60.87;100501.00;4334626;32;32084;-86
2022/05/09 02:29:15;;;;;;;5.87;5.28;;;;;;;16.27;61.32;100508.22;4347751;32;34036;-86
2022/05/09 02:31:43;;;;;;;7.65;5.93;;;;;;;16.31;61.19;100506.25;4318904;33;33095;-86
2022/05/09 02:34:11;;;;;;;5.47;4.87;;;;;;;16.30;61.07;100508.06;4333531;32;33200;-87
2022/05/09 02:36:40;;;;;;;6.07;5.30;;;;;;;16.31;61.11;100508.91;4346501;32;34086;-86
2022/05/09 02:39:09;;;;;;;6.20;5.20;;;;;;;16.53;60.58;100506.75;4332816;32;33555;-86
2022/05/09 02:41:37;;;;;;;6.25;5.45;;;;;;;16.29;61.25;100516.16;4345055;32;34135;-85
2022/05/09 02:44:06;;;;;;;7.65;6.35;;;;;;;16.10;62.01;100518.97;4341196;32;33057;-86
2022/05/09 02:46:34;;;;;;;8.25;5.72;;;;;;;16.23;61.50;100508.47;4356815;32;33395;-88
2022/05/09 02:49:02;;;;;;;5.90;4.95;;;;;;;16.12;61.80;100515.25;4328976;32;32780;-88
2022/05/09 02:51:31;;;;;;;6.22;5.18;;;;;;;16.07;61.83;100517.31;4358645;32;32904;-86
2022/05/09 02:53:59;;;;;;;8.55;5.53;;;;;;;15.95;62.04;100519.78;4364098;32;34432;-86
2022/05/09 02:56:27;;;;;;;8.27;5.65;;;;;;;15.97;62.07;100524.09;4359225;32;33348;-86
2022/05/09 02:58:57;;;;;;;7.87;6.07;;;;;;;16.03;61.95;100520.25;4352810;32;34605;-86
2022/05/09 03:01:25;;;;;;;7.00;5.65;;;;;;;16.12;61.80;100512.59;4354360;32;33076;-84
2022/05/09 03:06:41;;;;;;;6.57;5.25;;;;;;;16.02;62.35;100519.38;4357368;32;33735;-84
2022/05/09 03:09:11;;;;;;;6.35;5.68;;;;;;;16.07;62.40;100512.00;4361025;32;32684;-84
2022/05/09 03:11:40;;;;;;;7.13;5.07;;;;;;;16.17;62.36;100511.50;4363744;32;34133;-84
2022/05/09 03:14:08;;;;;;;7.07;5.55;;;;;;;16.19;62.38;100518.47;4352352;32;34307;-84
2022/05/09 03:16:36;;;;;;;6.05;5.12;;;;;;;15.95;63.58;100518.00;4341450;32;32706;-84
2022/05/09 03:19:04;;;;;;;5.43;4.87;;;;;;;16.08;63.24;100516.38;4368520;32;34138;-84
2022/05/09 03:21:32;;;;;;;5.72;4.55;;;;;;;16.25;62.70;100519.91;4355252;32;34634;-84
2022/05/09 03:24:00;;;;;;;6.65;4.87;;;;;;;16.31;62.36;100520.44;4353821;32;33008;-84
2022/05/09 03:26:28;;;;;;;7.53;5.70;;;;;;;16.37;62.22;100525.41;4361256;32;33398;-84
2022/05/09 03:28:57;;;;;;;5.28;4.78;;;;;;;16.38;62.23;100526.28;4369218;32;34013;-84
2022/05/09 03:31:27;;;;;;;7.25;5.15;;;;;;;16.39;62.16;100520.88;4345757;32;33258;-85
2022/05/09 03:33:56;;;;;;;8.68;4.93;;;;;;;16.43;62.12;100529.56;4338018;32;33185;-88
2022/05/09 03:36:25;;;;;;;6.25;4.87;;;;;;;16.38;62.46;100526.28;4359207;32;33506;-88
2022/05/09 03:38:56;;;;;;;7.68;5.00;;;;;;;16.42;62.48;100525.16;4359450;32;33787;-88
2022/05/09 03:41:24;;;;;;;5.65;5.00;;;;;;;16.41;62.59;100528.75;4357112;32;33841;-88
2022/05/09 03:43:52;;;;;;;7.00;5.30;;;;;;;16.60;62.02;100532.09;4341556;32;33070;-88
2022/05/09 03:46:23;;;;;;;6.00;5.32;;;;;;;16.58;62.13;100528.69;4352623;32;33410;-87
2022/05/09 03:48:52;;;;;;;6.30;4.78;;;;;;;16.68;61.90;100538.81;4359699;32;34020;-86
2022/05/09 03:51:20;;;;;;;7.47;5.03;;;;;;;16.64;61.99;100544.31;4351745;32;33205;-85
2022/05/09 03:53:47;;;;;;;8.35;4.95;;;;;;;16.68;62.02;100538.81;4345007;32;33853;-85
2022/05/09 03:56:15;;;;;;;8.55;5.82;;;;;;;16.81;61.67;100535.41;4350130;32;34111;-85
2022/05/09 03:58:44;;;;;;;6.47;4.87;;;;;;;16.90;61.58;100533.97;4366739;32;33073;-85
2022/05/09 04:01:12;;;;;;;8.75;5.32;;;;;;;17.02;61.28;100538.63;4347728;32;34956;-85
2022/05/09 04:03:40;;;;;;;8.93;5.80;;;;;;;16.96;61.69;100544.31;4356132;32;33579;-85
2022/05/09 04:06:08;;;;;;;8.55;5.37;;;;;;;17.24;61.06;100543.56;4350342;32;32945;-85
2022/05/09 04:08:36;;;;;;;6.32;4.80;;;;;;;17.48;60.43;100541.22;4356521;32;34582;-85
2022/05/09 04:11:48;;;;;;;7.15;5.25;;;;;;;17.60;60.16;100552.94;4351032;32;33693;-85
2022/05/09 04:14:16;;;;;;;9.25;5.12;;;;;;;17.06;62.17;100542.81;4369189;32;34464;-85
2022/05/09 04:16:51;;;;;;;13.62;5.20;;;;;;;17.09;62.38;100550.66;4363219;32;32328;-85
2022/05/09 04:19:21;;;;;;;8.05;5.68;;;;;;;17.09;62.68;100542.66;4357853;32;34285;-85
2022/05/09 04:21:48;;;;;;;8.05;4.93;;;;;;;17.27;62.17;100539.81;4357388;32;34622;-88
2022/05/09 04:24:18;;;;;;;7.40;5.07;;;;;;;17.37;62.00;100551.66;4336827;32;33170;-86
2022/05/09 04:26:47;;;;;;;7.27;5.40;;;;;;;17.50;61.85;100549.97;4345875;32;34783;-86
2022/05/09 04:29:16;;;;;;;6.60;5.12;;;;;;;17.63;61.43;100550.09;4359951;32;33557;-86
2022/05/09 04:31:46;;;;;;;10.60;5.62;;;;;;;17.75;60.84;100548.50;4327549;32;33038;-85
2022/05/09 04:34:21;;;;;;;5.37;4.60;;;;;;;17.88;60.01;100552.16;4359665;32;33946;-85
2022/05/09 04:36:54;;;;;;;5.03;3.65;;;;;;;18.01;59.39;100550.44;4351396;32;33450;-86
2022/05/09 04:39:23;;;;;;;6.43;5.25;;;;;;;18.10;59.21;100555.22;4350772;32;33846;-86
2022/05/09 04:41:55;;;;;;;6.47;4.82;;;;;;;18.25;59.93;100555.19;4351927;32;34683;-86
2022/05/09 04:44:23;;;;;;;5.62;5.05;;;;;;;18.25;60.15;100569.41;4355349;32;34562;-86
2022/05/09 04:46:54;;;;;;;8.80;5.10;;;;;;;18.29;59.87;100565.59;4354749;32;33115;-87
2022/05/09 04:49:22;;;;;;;5.82;4.35;;;;;;;18.43;59.24;100567.38;4348343;32;32596;-87
2022/05/09 04:51:50;;;;;;;7.43;4.95;;;;;;;18.43;59.18;100562.03;4343530;32;33760;-87
2022/05/09 04:54:19;;;;;;;7.53;4.90;;;;;;;18.24;60.64;100566.84;4353149;32;34523;-84
2022/05/09 04:56:48;;;;;;;10.48;4.18;;;;;;;18.41;60.16;100563.94;4363187;32;32639;-84
2022/05/09 04:59:19;;;;;;;9.77;4.97;;;;;;;18.35;60.50;100569.69;4346829;32;32956;-85
2022/05/09 05:01:50;;;;;;;5.80;4.75;;;;;;;18.45;60.31;100560.13;4354094;32;33358;-84
2022/05/09 05:04:23;;;;;;;4.82;3.42;;;;;;;18.54;59.89;100564.88;4351579;32;34226;-84
2022/05/09 05:06:52;;;;;;;5.40;4.22;;;;;;;18.80;58.23;100570.38;4353607;32;33859;-85
2022/05/09 05:09:22;;;;;;;8.15;5.25;;;;;;;18.81;58.13;100566.75;4356304;32;35017;-85
2022/05/09 05:11:49;;;;;;;4.22;3.58;;;;;;;18.81;58.31;100572.09;4342911;32;33789;-85
2022/05/09 05:14:19;;;;;;;5.65;4.62;;;;;;;18.93;57.93;100572.13;4368127;32;34322;-85
2022/05/09 05:16:59;;;;;;;7.78;3.62;;;;;;;18.97;57.75;100574.62;4355394;32;34074;-84
2022/05/09 05:19:31;;;;;;;10.80;4.20;;;;;;;19.01;57.62;100568.97;4358092;32;34691;-84
2022/05/09 05:22:08;;;;;;;6.15;4.45;;;;;;;19.12;57.04;100577.13;4346329;32;33121;-85
2022/05/09 05:24:38;;;;;;;9.13;4.68;;;;;;;19.08;57.13;100572.94;4356961;32;33612;-84
2022/05/09 05:27:07;;;;;;;6.72;4.30;;;;;;;19.11;56.89;100580.75;4329129;32;32635;-85
2022/05/09 05:29:36;;;;;;;4.45;3.95;;;;;;;19.10;57.29;100584.41;4337981;32;34317;-84
2022/05/09 05:32:22;;;;;;;7.93;4.72;;;;;;;19.21;57.30;100575.66;4363383;32;33646;-85
2022/05/09 05:34:51;;;;;;;4.53;4.12;;;;;;;19.21;57.19;100585.50;4349626;32;33019;-84
2022/05/09 05:41:44;;;;;;;6.32;3.80;;;;;;;19.24;57.75;100588.00;4365806;32;34749;-85
2022/05/09 05:44:13;;;;;;;6.93;4.45;;;;;;;19.30;56.86;100595.59;4342835;32;33821;-85
2022/05/09 05:46:45;;;;;;;9.25;4.53;;;;;;;19.39;56.25;100600.34;4350759;32;34530;-85
2022/05/09 05:49:15;;;;;;;5.12;3.72;;;;;;;19.45;56.62;100591.88;4355514;32;33108;-85
2022/05/09 05:51:44;;;;;;;4.93;3.95;;;;;;;19.51;56.18;100599.47;4359418;32;34616;-85
2022/05/09 05:54:14;;;;;;;5.40;3.75;;;;;;;19.62;55.87;100601.47;4353256;32;33971;-85
2022/05/09 05:56:42;;;;;;;5.85;3.80;;;;;;;19.63;55.74;100601.38;4356487;32;33900;-85
2022/05/09 05:59:10;;;;;;;4.62;3.53;;;;;;;19.76;54.61;100600.53;4336795;32;33578;-85
2022/05/09 06:01:41;;;;;;;5.53;3.97;;;;;;;19.81;53.79;100599.25;4353758;32;33168;-86
2022/05/09 06:04:13;;;;;;;4.87;3.90;;;;;;;19.89;53.54;100598.69;4349104;32;33231;-85
2022/05/09 06:06:53;;;;;;;5.62;3.30;;;;;;;19.94;53.82;100605.47;4345401;32;33159;-85
2022/05/09 06:09:22;;;;;;;4.43;3.10;;;;;;;20.18;53.13;100605.56;4344358;32;33478;-85
2022/05/09 06:11:51;;;;;;;5.15;3.50;;;;;;;20.37;52.28;100612.31;4351407;32;33758;-84
2022/05/09 06:18:45;;;;;;;8.18;3.60;;;;;;;20.56;53.33;100610.03;4333863;33;34692;-84
2022/05/09 06:21:19;;;;;;;7.00;4.28;;;;;;;20.36;53.84;100611.41;4343161;32;33441;-85
2022/05/09 06:23:48;;;;;;;6.15;4.75;;;;;;;20.37;53.87;100615.84;4330503;32;33017;-84
2022/05/09 06:26:22;;;;;;;6.62;4.78;;;;;;;20.50;54.35;100614.97;4358215;32;33304;-84
2022/05/09 06:28:51;;;;;;;8.57;4.43;;;;;;;20.36;53.94;100619.47;4347142;33;33904;-84
2022/05/09 06:31:21;;;;;;;7.90;5.15;;;;;;;20.42;55.13;100618.19;4344350;33;35671;-85
2022/05/09 06:33:50;;;;;;;8.18;5.15;;;;;;;20.53;55.08;100612.09;4320564;33;34670;-85
2022/05/09 06:36:19;;;;;;;12.80;4.55;;;;;;;20.50;54.72;100610.47;4351775;32;35574;-85
2022/05/09 06:38:46;;;;;;;9.85;4.57;;;;;;;20.48;54.24;100615.09;4359149;32;33699;-84
2022/05/09 06:41:16;;;;;;;5.35;3.83;;;;;;;20.33;54.65;100619.72;4340907;33;33701;-85
2022/05/09 06:43:48;;;;;;;10.07;4.43;;;;;;;20.56;53.12;100620.78;4359229;32;33678;-85
2022/05/09 06:46:22;;;;;;;6.82;4.68;;;;;;;20.69;51.99;100623.41;4368397;32;33813;-85
2022/05/09 06:48:51;;;;;;;6.95;4.35;;;;;;;20.68;52.54;100619.87;4361660;32;33541;-85
2022/05/09 06:51:25;;;;;;;13.57;3.72;;;;;;;20.63;51.67;100623.84;4349871;32;33027;-85
2022/05/09 06:54:01;;;;;;;5.60;3.53;;;;;;;20.73;50.84;100632.09;4350322;32;34448;-85
2022/05/09 06:56:40;;;;;;;8.73;4.97;;;;;;;20.60;52.69;100632.97;4345376;32;34472;-85
2022/05/09 06:59:08;;;;;;;11.07;4.87;;;;;;;20.56;54.25;100628.81;4341570;32;33462;-85
2022/05/09 07:01:37;;;;;;;8.75;4.78;;;;;;;20.49;54.02;100632.91;4349268;32;32475;-86
2022/05/09 07:04:06;;;;;;;10.20;4.30;;;;;;;20.56;54.17;100636.03;4336281;33;32572;-85
2022/05/09 07:06:38;;;;;;;8.63;4.45;;;;;;;20.54;54.50;100641.47;4333681;32;33832;-85
2022/05/09 07:09:10;;;;;;;6.10;4.10;;;;;;;20.51;53.98;100648.88;4346874;32;33730;-85
2022/05/09 07:11:43;;;;;;;10.77;5.35;;;;;;;20.47;53.78;100642.91;4335348;33;34121;-85
2022/05/09 07:14:12;;;;;;;8.75;6.07;;;;;;;20.54;54.32;100649.53;4328924;32;34324;-85
2022/05/09 07:16:40;;;;;;;6.00;5.30;;;;;;;20.68;53.59;100649.38;4338192;33;34028;-85
2022/05/09 07:19:09;;;;;;;9.60;5.65;;;;;;;20.73;53.73;100648.19;4327933;32;32803;-85
2022/05/09 07:21:37;;;;;;;9.48;6.75;;;;;;;20.79;53.73;100653.13;4354493;32;34132;-85
2022/05/09 07:24:06;;;;;;;7.78;6.07;;;;;;;21.05;53.00;100649.38;4336450;33;33982;-85
2022/05/09 07:26:36;;;;;;;7.37;6.30;;;;;;;20.97;53.09;100651.78;4323896;33;33022;-85
2022/05/09 07:29:09;;;;;;;8.98;6.40;;;;;;;21.01;54.11;100653.25;4350115;32;33712;-86
2022/05/09 07:31:42;;;;;;;8.85;6.07;;;;;;;21.13;54.00;100651.53;4363234;32;33351;-86
2022/05/09 07:34:18;;;;;;;8.13;6.12;;;;;;;21.04;54.51;100652.19;4351395;32;33695;-86
2022/05/09 07:36:47;;;;;;;6.57;5.35;;;;;;;21.09;54.35;100645.50;4353491;32;34028;-86
2022/05/09 07:39:26;;;;;;;7.90;5.22;;;;;;;20.92;53.78;100652.09;4336177;33;33733;-85
2022/05/09 07:41:59;;;;;;;6.22;5.40;;;;;;;20.89;55.56;100654.19;4325487;33;34246;-86
2022/05/09 07:44:27;;;;;;;7.22;6.15;;;;;;;20.89;54.31;100657.72;4341293;33;32759;-86
2022/05/09 07:46:58;;;;;;;8.27;5.00;;;;;;;21.48;53.80;100652.44;4335888;33;34483;-86
2022/05/09 07:49:26;;;;;;;8.88;4.62;;;;;;;21.59;52.67;100653.44;4336948;33;33193;-85
2022/05/09 07:51:56;;;;;;;5.93;4.53;;;;;;;21.86;50.33;100650.47;4346418;33;33364;-86
2022/05/09 07:54:25;;;;;;;5.75;5.18;;;;;;;21.89;50.65;100655.62;4344780;33;33801;-84
2022/05/09 07:56:53;;;;;;;8.02;4.55;;;;;;;21.69;50.89;100654.44;4335888;33;33940;-82
2022/05/09 07:59:21;;;;;;;5.22;4.57;;;;;;;21.75;50.12;100655.84;4335826;33;33187;-82
2022/05/09 08:01:52;;;;;;;9.60;3.75;;;;;;;21.72;49.89;100662.28;4351244;32;33102;-82
2022/05/09 08:04:20;;;;;;;9.35;4.55;;;;;;;21.67;49.13;100657.25;4338698;32;33232;-82
2022/05/09 08:06:48;;;;;;;5.12;4.50;;;;;;;21.63;50.63;100661.16;4362892;32;33922;-82
2022/05/09 08:09:17;;;;;;;4.97;3.65;;;;;;;21.87;49.32;100658.41;4363670;32;33603;-82
2022/05/09 08:11:50;;;;;;;5.53;3.67;;;;;;;21.93;49.03;100657.97;4349369;33;33192;-82
2022/05/09 08:14:18;;;;;;;6.00;3.37;;;;;;;22.15;47.04;100656.31;4360386;32;34307;-82
2022/05/09 08:16:50;;;;;;;5.53;3.78;;;;;;;22.14;47.36;100660.84;4358413;32;34665;-82
2022/05/09 08:19:20;;;;;;;5.60;4.18;;;;;;;22.12;48.03;100667.28;4337613;32;34096;-82
2022/05/09 08:21:50;;;;;;;3.30;3.00;;;;;;;22.22;47.48;100663.78;4350562;32;31989;-83
2022/05/09 08:24:28;;;;;;;4.72;3.65;;;;;;;22.30;47.15;100655.09;4363925;32;34235;-82
2022/05/09 08:26:59;;;;;;;3.90;3.53;;;;;;;22.01;47.18;100653.81;4364052;32;34857;-83
2022/05/09 08:29:34;;;;;;;4.22;3.00;;;;;;;22.13;47.27;100651.06;4346409;32;34322;-82
2022/05/09 08:32:10;;;;;;;4.45;3.30;;;;;;;22.52;46.15;100653.41;4345031;32;33099;-83
2022/05/09 08:34:42;;;;;;;4.03;3.60;;;;;;;22.59;46.34;100650.06;4350709;32;32931;-82
2022/05/09 08:37:10;;;;;;;6.65;3.30;;;;;;;22.53;45.20;100642.50;4362354;32;32755;-83
2022/05/09 08:39:39;;;;;;;5.32;3.90;;;;;;;22.66;45.06;100645.06;4337854;33;34471;-83
2022/05/09 08:42:08;;;;;;;5.70;3.25;;;;;;;23.13;44.75;100648.44;4360132;32;33015;-83
2022/05/09 08:44:45;;;;;;;5.07;3.67;;;;;;;23.24;44.16;100646.56;4358212;32;32631;-83
2022/05/09 08:47:19;;;;;;;4.80;2.72;;;;;;;23.61;43.55;100653.41;4362665;32;33723;-83
2022/05/09 08:50:09;;;;;;;7.50;3.33;;;;;;;23.59;43.03;100645.41;4352421;32;32901;-83
2022/05/09 08:52:47;;;;;;;6.05;3.00;;;;;;;23.63;44.24;100649.56;4335503;33;33324;-83
2022/05/09 08:55:25;;;;;;;3.15;2.92;;;;;;;23.88;41.15;100642.09;4336115;33;34701;-83
2022/05/09 08:58:02;;;;;;;4.30;3.10;;;;;;;23.66;40.62;100645.81;4319375;33;33446;-83
2022/05/09 09:00:37;;;;;;;5.57;3.12;;;;;;;24.05;40.77;100646.06;4329030;33;33431;-82
2022/05/09 09:03:15;;;;;;;3.95;3.25;;;;;;;24.11;40.72;100651.75;4325744;32;33572;-82
2022/05/09 09:05:46;;;;;;;4.80;3.30;;;;;;;23.98;40.18;100657.37;4350420;32;33990;-82
2022/05/09 09:08:22;;;;;;;;;;;;;;;23.71;41.96;100654.34;4348050;33;33857;-82
2022/05/09 09:11:00;;;;;;;5.47;3.10;;;;;;;23.55;40.18;100652.06;4348189;32;32660;-83
2022/05/09 09:13:41;;;;;;;3.47;2.87;;;;;;;23.19;43.30;100654.16;4338731;32;33435;-83
2022/05/09 09:16:47;;;;;;;3.42;2.72;;;;;;;23.35;41.03;100656.41;4337668;32;34050;-83
2022/05/09 09:19:42;;;;;;;3.55;3.20;;;;;;;23.73;40.29;100657.75;4335311;33;32582;-83
2022/05/09 09:30:10;;;;;;;4.22;2.53;;;;;;;23.87;40.04;100653.87;4363992;32;35391;-82
2022/05/09 09:32:41;;;;;;;4.47;3.25;;;;;;;23.82;39.38;100656.12;4350106;32;33320;-83
2022/05/09 09:35:26;;;;;;;5.22;3.58;;;;;;;23.82;39.47;100656.12;4350646;32;33899;-83
2022/05/09 09:38:09;;;;;;;3.78;2.70;;;;;;;23.88;40.17;100658.28;4337328;32;32775;-83
2022/05/09 09:40:38;;;;;;;4.97;2.53;;;;;;;24.12;37.94;100656.19;4363517;32;33928;-82
2022/05/09 09:43:06;;;;;;;8.98;2.75;;;;;;;24.21;37.74;100652.69;4349831;32;33962;-83
2022/05/09 09:45:40;;;;;;;4.30;2.95;;;;;;;24.29;37.31;100654.69;4349884;32;33365;-83
2022/05/09 09:48:12;;;;;;;3.92;2.80;;;;;;;24.13;37.77;100655.19;4348835;32;32572;-84
2022/05/09 09:50:52;;;;;;;3.53;3.22;;;;;;;24.51;37.70;100645.59;4378272;32;34035;-83
2022/05/09 09:53:30;;;;;;;3.28;2.97;;;;;;;24.66;37.40;100646.09;4353099;32;33871;-83
2022/05/09 09:56:10;;;;;;;4.80;2.90;;;;;;;24.68;37.24;100644.94;4361832;32;33168;-83
2022/05/09 09:58:39;;;;;;;3.45;2.83;;;;;;;24.61;37.93;100643.78;4332885;32;33964;-83
2022/05/09 10:01:18;;;;;;;6.05;3.30;;;;;;;24.64;36.96;100635.44;4365628;32;34607;-84
2022/05/09 10:04:06;;;;;;;4.50;2.75;;;;;;;24.69;36.09;100635.03;4353036;32;33740;-84
2022/05/09 10:06:36;;;;;;;3.65;2.80;;;;;;;24.69;36.03;100635.88;4354576;32;33343;-83
2022/05/09 10:09:06;;;;;;;3.50;3.17;;;;;;;24.94;37.35;100633.66;4361332;32;33001;-83
2022/05/09 10:11:37;;;;;;;5.32;3.03;;;;;;;25.45;36.50;100627.19;4337801;32;32849;-83
2022/05/09 10:14:07;;;;;;;3.03;2.30;;;;;;;25.57;35.70;100615.22;4325111;32;32973;-82
2022/05/09 10:16:48;;;;;;;3.75;3.40;;;;;;;26.06;34.75;100613.28;4349263;32;33064;-83
2022/05/09 10:19:37;;;;;;;3.20;2.90;;;;;;;25.72;31.31;100613.75;4355475;32;32713;-83
2022/05/09 10:25:25;;;;;;;3.47;3.17;;;;;;;26.89;32.58;100597.97;4345892;33;32704;-83
2022/05/09 10:28:17;;;;;;;5.80;3.00;;;;;;;26.94;32.91;100597.50;4349369;32;32417;-83
2022/05/09 10:30:48;;;;;;;4.72;3.10;;;;;;;27.27;32.83;100598.72;4355379;32;33403;-83
2022/05/09 10:33:35;;;;;;;5.03;3.37;;;;;;;27.11;31.32;100588.56;4344700;32;33061;-82
2022/05/09 10:36:09;;;;;;;3.85;3.10;;;;;;;26.80;31.63;100590.75;4376224;32;33948;-82
2022/05/09 10:39:04;;;;;;;3.50;3.08;;;;;;;26.76;32.08;100584.78;4351485;32;34302;-83
2022/05/09 10:41:46;;;;;;;4.15;3.10;;;;;;;26.51;31.39;100588.22;4362978;32;33795;-83
2022/05/09 10:44:36;;;;;;;8.75;4.07;;;;;;;27.02;34.07;100581.34;4350376;32;33881;-83
2022/05/09 10:47:08;;;;;;;4.87;3.35;;;;;;;27.29;31.26;100578.53;4362988;32;33777;-83
2022/05/09 10:50:22;;;;;;;9.93;3.83;;;;;;;27.08;31.63;100571.72;4352397;32;34032;-82
2022/05/09 10:53:10;;;;;;;4.80;3.10;;;;;;;26.84;32.52;100567.75;4349599;32;33149;-83
2022/05/09 10:56:15;;;;;;;7.43;2.95;;;;;;;27.01;32.07;100572.34;4343410;32;34265;-83
2022/05/09 10:59:04;;;;;;;4.07;3.30;;;;;;;26.99;30.91;100566.22;4330784;33;33454;-82
2022/05/09 11:02:04;;;;;;;3.83;3.28;;;;;;;26.52;32.97;100560.13;4348497;33;33430;-83
2022/05/09 11:04:35;;;;;;;4.37;3.08;;;;;;;27.23;31.49;100565.63;4349537;32;33232;-82
2022/05/09 11:07:26;;;;;;;4.12;3.08;;;;;;;27.15;31.56;100553.84;4363086;32;33893;-83
2022/05/09 11:10:16;;;;;;;4.43;2.97;;;;;;;26.98;32.78;100558.25;4349138;32;33661;-83
2022/05/09 11:21:43;;;;;;;4.25;3.87;;;;;;;27.55;31.12;100547.91;4364326;32;33714;-83
2022/05/09 11:24:38;;;;;;;4.93;3.20;;;;;;;28.11;30.33;100535.75;4363311;32;33058;-84
2022/05/09 11:30:28;;;;;;;4.25;3.35;;;;;;;28.38;29.52;100517.53;4303245;33;33087;-83
2022/05/09 11:33:06;;;;;;;3.85;3.08;;;;;;;29.21;29.07;100517.53;4281123;33;34074;-83
2022/05/09 11:35:40;;;;;;;8.68;3.17;;;;;;;29.09;28.27;100522.44;4331694;32;34031;-83
2022/05/09 11:38:24;;;;;;;4.18;2.97;;;;;;;28.59;28.86;100507.06;4363170;32;34470;-84
2022/05/09 11:41:31;;;;;;;3.28;2.95;;;;;;;28.84;28.27;100506.09;4363073;32;33313;-82
2022/05/09 11:44:16;;;;;;;3.03;2.72;;;;;;;29.27;27.16;100506.81;4364078;32;33937;-85
2022/05/09 11:47:08;;;;;;;4.00;2.22;;;;;;;29.24;27.43;100512.56;4352171;32;34864;-84
2022/05/09 11:50:10;;;;;;;3.25;2.95;;;;;;;28.65;26.14;100519.13;4343675;32;33791;-85
2022/05/09 11:52:44;;;;;;;3.95;3.55;;;;;;;28.48;26.84;100515.50;4363039;32;33382;-84
2022/05/09 11:55:17;;;;;;;6.57;2.97;;;;;;;28.62;30.09;100520.31;4362977;32;33435;-84
2022/05/09 11:57:50;;;;;;;9.10;2.87;;;;;;;26.84;29.06;100532.53;4363199;32;33607;-85
2022/05/09 12:00:26;;;;;;;10.27;3.30;;;;;;;25.17;30.83;100540.56;4363178;32;33944;-84
2022/05/09 12:03:05;;;;;;;3.83;1.98;;;;;;;23.65;33.50;100563.22;4362897;32;33778;-84
2022/05/09 12:05:40;;;;;;;2.53;1.58;;;;;;;22.75;35.00;100571.63;4363008;32;33569;-84
2022/05/09 12:08:19;;;;;;;3.20;2.35;;;;;;;22.71;35.45;100562.09;4364242;32;34471;-84
2022/05/09 12:11:18;;;;;;;5.18;2.53;;;;;;;22.21;39.04;100554.44;4336115;32;32446;-84
2022/05/09 12:13:50;;;;;;;5.90;3.90;;;;;;;22.40;40.26;100542.19;4350593;32;33689;-84
2022/05/09 12:16:39;;;;;;;3.78;3.08;;;;;;;22.41;40.81;100539.41;4362866;32;33412;-85
2022/05/09 12:19:31;;;;;;;3.67;2.50;;;;;;;22.28;39.85;100538.69;4362794;32;34043;-84
2022/05/09 12:28:30;;;;;;;2.25;2.05;;;;;;;21.83;41.78;100532.41;4362710;32;33876;-84
2022/05/09 12:31:18;;;;;;;5.25;2.80;;;;;;;21.88;42.20;100540.97;4348811;32;34775;-84
2022/05/09 12:33:54;;;;;;;2.97;2.62;;;;;;;22.10;42.17;100545.50;4354361;32;34639;-85